Data for 07/19/2005

Time Sea-Level Adjusted Pressure Absolute Pressure Temperature Relative Humidity Dew Point   
(mb) (inHg) (mb) (inHg) (C) (F) (%) (C) (F)
00:05 1015 29.97 844 24.92 20.1 68.2 41 6.6 43.8
00:10 1015 29.97 844 24.92 20.1 68.1 36 4.8 40.6
00:15 1015 29.97 844 24.92 20.1 68.2 38 5.6 42.1
00:20 1015 29.97 844 24.92 19.5 67.1 45 7.5 45.5
00:25 1015 29.97 844 24.92 19.3 66.7 41 5.7 42.3
00:30 1015 29.97 844 24.92 18.6 65.6 45 6.5 43.7
00:35 1015 29.97 844 24.92 18 64.4 50 7.4 45.4
00:40 1015 29.97 844 24.92 17.9 64.3 47 6.5 43.7
00:45 1015 29.97 844 24.92 17.6 63.7 47 6.4 43.5
00:50 1015 29.97 844 24.92 17 62.6 47 5.7 42.3
00:55 1015 29.97 844 24.92 17 62.6 48 6 42.7
01:00 1015 29.97 844 24.92 17.1 62.8 50 6.8 44.3
01:05 1015 29.97 844 24.92 17.1 62.7 49 6.2 43.2
01:10 1015 29.97 844 24.92 16.5 61.7 49 6 42.8
01:15 1015 29.97 844 24.92 16.3 61.3 48 5.4 41.8
01:20 1015 29.97 844 24.92 16 60.9 52 6.3 43.4
01:25 1015 29.97 844 24.92 15.6 60.1 53 6.2 43.1
01:30 1015 29.97 844 24.92 15.5 59.8 54 6.2 43.1
01:35 1015 29.97 844 24.92 15.4 59.7 50 5.2 41.4
01:40 1015 29.97 844 24.92 16 60.8 48 5 40.9
01:45 1015 29.97 844 24.92 16.3 61.4 47 5 41.1
01:50 1015 29.97 844 24.92 16.7 62 44 4.5 40.2
01:55 1015 29.97 844 24.92 17 62.6 41 3.8 38.9
02:00 1015 29.97 844 24.92 17.4 63.4 43 4.8 40.6
02:05 1015 29.97 844 24.92 17.1 62.8 42 4 39.3
02:10 1015 29.97 844 24.92 17.3 63.1 47 6.1 42.9
02:15 1015 29.97 844 24.92 16.8 62.2 45 5 41
02:20 1015 29.97 844 24.92 16.6 61.8 44 4.3 39.7
02:25 1015 29.97 844 24.92 16.7 62 42 3.7 38.7
02:30 1015 29.97 844 24.92 17.4 63.4 45 5.4 41.7
02:35 1015 29.97 844 24.92 16.9 62.4 45 5 41
02:40 1015 29.97 844 24.92 16.3 61.4 44 4.3 39.7
02:45 1015 29.97 844 24.92 16.6 61.9 42 3.7 38.6
02:50 1015 29.97 844 24.92 16.9 62.5 42 3.9 39
02:55 1015 29.97 844 24.92 16.6 61.9 43 4.2 39.5
03:00 1015 29.97 844 24.92 16.3 61.4 44 4.1 39.3
03:05 1015 29.97 844 24.92 16.4 61.5 43 4 39.2
03:10 1015 29.97 844 24.92 16.6 61.8 42 3.6 38.5
03:15 1015 29.97 844 24.92 16.8 62.2 44 4.7 40.4
03:20 1015 29.97 844 24.92 16.7 62 43 4 39.2
03:25 1015 29.97 844 24.92 15.9 60.7 47 4.8 40.6
03:30 1015 29.97 844 24.92 15.3 59.6 48 4.5 40
03:35 1015 29.97 844 24.92 15.5 59.9 47 4.2 39.6
03:40 1015 29.97 844 24.92 15.3 59.6 48 4.4 39.9
03:45 1015 29.97 844 24.92 15.2 59.3 50 4.9 40.8
03:50 1015 29.97 844 24.92 15.1 59.1 46 3.8 38.8
03:55 1015 29.97 844 24.92 15.4 59.7 49 4.8 40.7
04:00 1015 29.97 844 24.92 14.7 58.5 50 4.4 40
04:05 1015 29.97 844 24.92 14.8 58.6 49 4.3 39.7
04:10 1015 29.97 844 24.92 14.8 58.7 53 5.3 41.6
04:15 1015 29.97 844 24.92 15.3 59.5 47 4.1 39.4
04:20 1015 29.97 844 24.92 15.5 59.8 48 4.5 40
04:25 1015 29.97 844 24.92 14.7 58.4 52 4.9 40.8
04:30 1015 29.97 844 24.92 14.9 58.8 46 3.6 38.5
04:35 1015 29.97 844 24.92 15.2 59.4 47 4 39.1
04:40 1015 29.97 844 24.92 15.5 59.9 45 3.7 38.7
04:45 1015 29.97 844 24.92 15 59.1 50 4.7 40.5
04:50 1015 29.97 844 24.92 14.9 58.8 47 3.7 38.7
04:55 1015 29.97 844 24.92 14.9 58.8 47 3.8 38.8
05:00 1015 29.97 844 24.92 14.8 58.7 48 4 39.2
05:05 1015 29.97 844 24.92 14.7 58.5 47 3.6 38.4
05:10 1015 29.97 844 24.92 15 59 47 3.8 38.8
05:15 1015 29.97 844 24.92 15.4 59.8 44 3.3 38
05:20 1015 29.97 844 24.92 15.6 60 45 3.9 39
05:25 1015 29.97 844 24.92 15.5 59.9 44 3.4 38.1
05:30 1015 29.97 844 24.92 15.5 60 45 3.7 38.7
05:35 1015 29.97 844 24.92 15.2 59.4 45 3.6 38.4
05:40 1015 29.97 844 24.92 15.1 59.2 52 5.3 41.6
05:45 1015 29.97 844 24.92 14.6 58.2 51 4.7 40.4
05:50 1015 29.97 844 24.92 13.8 56.9 53 4.4 39.9
05:55 1015 29.97 844 24.92 13.8 56.8 52 4 39.2
06:00 1015 29.97 844 24.92 13.8 56.9 50 3.6 38.4
06:05 1015 29.97 844 24.92 14.1 57.4 49 3.6 38.5
06:10 1015 29.97 844 24.92 14.2 57.5 49 3.8 38.8
06:15 1015 29.97 844 24.92 14.2 57.6 48 3.5 38.3
06:20 1015 29.97 844 24.92 14.5 58.2 49 4.1 39.3
06:25 1015 29.97 844 24.92 14.8 58.6 47 3.6 38.5
06:30 1015 29.97 844 24.92 15 59 46 3.4 38.2
06:35 1015 29.97 844 24.92 15.4 59.6 44 3.4 38.1
06:40 1015 29.97 844 24.92 15.5 60 42 2.9 37.1
06:45 1015 29.97 844 24.92 16 60.8 42 3.1 37.7
06:50 1015 29.97 844 24.92 15.9 60.5 46 4.3 39.7
06:55 1015 29.97 844 24.92 15.7 60.2 45 3.9 39.1
07:00 1015 29.97 844 24.92 16.4 61.6 42 3.4 38.2
07:05 1015 29.97 844 24.92 16.7 62 43 4 39.2
07:10 1015 29.97 844 24.92 16.5 61.7 43 4.1 39.4
07:15 1015 29.97 844 24.92 16.5 61.6 45 4.6 40.3
07:20 1015 29.97 844 24.92 16.8 62.3 44 4.7 40.4
07:25 1015 29.97 844 24.92 17.3 63.2 43 4.8 40.7
07:30 1015 29.97 844 24.92 18 64.5 40 4.4 40
07:35 1015 29.97 844 24.92 18.4 65.2 40 4.7 40.5
07:40 1015 29.97 844 24.92 18.3 65 40 4.7 40.5
07:45 1015 29.97 844 24.92 18.6 65.5 40 4.8 40.7
07:50 1015 29.97 844 24.92 18.9 65.9 38 4.4 39.9
07:55 1015 29.97 844 24.92 19.1 66.5 37 4.1 39.4
08:00 1015 29.97 844 24.92 19.6 67.2 36 4.2 39.5
08:05 1015 29.97 844 24.92 20.5 68.9 34 4.3 39.7
08:10 1015 29.97 845 24.95 21.2 70.2 33 4.7 40.5
08:15 1015 29.97 845 24.95 21.5 70.8 32 4.3 39.7
08:20 1015 29.97 844 24.92 21.4 70.5 36 5.7 42.3
08:25 1015 29.97 844 24.92 21.6 70.8 33 4.9 40.8
08:30 1015 29.97 845 24.95 21.8 71.2 35 5.7 42.2
08:35 1015 29.97 844 24.92 22.3 72.1 33 5.3 41.6
08:40 1015 29.97 844 24.92 23 73.3 32 5.8 42.4
08:45 1015 29.97 844 24.92 23.1 73.6 32 5.7 42.2
08:50 1015 29.97 844 24.92 22.8 73 32 5.5 41.9
08:55 1015 29.97 844 24.92 23 73.4 31 5 41
09:00 1015 29.97 844 24.92 23.4 74.2 32 6 42.7
09:05 1015 29.97 844 24.92 23.9 75.1 29 5.2 41.3
09:10 1015 29.97 844 24.92 24.4 76 29 5.6 42
09:15 1015 29.97 844 24.92 25.2 77.3 28 5.8 42.4
09:20 1015 29.97 844 24.92 25.5 77.9 29 6.5 43.6
09:25 1015 29.97 844 24.92 25.4 77.8 30 6.6 43.9
09:30 1015 29.97 844 24.92 25.8 78.4 30 6.9 44.4
09:35 1015 29.97 844 24.92 25.5 77.9 28 6 42.8
09:40 1015 29.97 844 24.92 25.9 78.6 29 6.9 44.4
09:45 1015 29.97 844 24.92 26.7 80.1 28 6.9 44.4
09:50 1015 29.97 844 24.92 26.9 80.5 27 6.4 43.6
09:55 1015 29.97 844 24.92 26.7 80 27 6.3 43.4
10:00 1015 29.97 844 24.92 26.3 79.3 26 5.6 42.1
10:05 1015 29.97 844 24.92 26 78.8 27 5.7 42.2
10:10 1015 29.97 844 24.92 25.8 78.5 27 5.7 42.2
10:15 1015 29.97 844 24.92 26.8 80.2 26 5.9 42.6
10:20 1015 29.97 844 24.92 27.4 81.3 24 5.2 41.3
10:25 1015 29.97 844 24.92 27.8 82 24 5.7 42.3
10:30 1015 29.97 844 24.92 27.7 81.9 24 5.7 42.2
10:35 1015 29.97 844 24.92 28 82.3 24 6 42.8
10:40 1015 29.97 844 24.92 28.2 82.7 23 5.6 42.1
10:45 1015 29.97 844 24.92 28.6 83.4 23 5.4 41.8
10:50 1015 29.97 844 24.92 28.7 83.7 24 6.3 43.3
10:55 1015 29.97 844 24.92 28.9 83.9 23 6 42.8
11:00 1015 29.97 844 24.92 28.9 84 22 5.4 41.6
11:05 1015 29.97 844 24.92 29.1 84.4 21 4.9 40.9
11:10 1015 29.97 844 24.92 29.4 84.9 19 3.7 38.7
11:15 1015 29.97 844 24.92 29.5 85.1 19 3.4 38.2
11:20 1015 29.97 844 24.92 29.3 84.8 15 0.1 32.2
11:25 1015 29.97 844 24.92 29.1 84.3 15 -0.1 31.9
11:30 1015 29.97 844 24.92 29.1 84.4 15 0.5 32.8
11:35 1015 29.97 844 24.92 29.1 84.4 14 -0.9 30.3
11:40 1015 29.97 844 24.92 29 84.2 14 -1.1 29.9
11:45 1015 29.97 844 24.92 29 84.1 15 -0.2 31.6
11:50 1015 29.97 844 24.92 29.4 84.9 15 0 32
11:55 1015 29.97 844 24.92 29.5 85.1 14 -0.4 31.3
12:00 1015 29.97 844 24.92 29.5 85 15 0 32
12:05 1014 29.94 844 24.92 29.5 85.1 13 -1.3 29.6
12:10 1014 29.94 844 24.92 29.5 85 14 -0.3 31.5
12:15 1015 29.97 844 24.92 29.8 85.6 14 -0.2 31.7
12:20 1014 29.94 844 24.92 29.9 85.8 14 -0.4 31.2
12:25 1014 29.94 844 24.92 30.1 86.2 14 -0.1 31.8
12:30 1014 29.94 844 24.92 30.1 86.1 13 -0.9 30.5
12:35 1014 29.94 844 24.92 30.1 86.3 14 0.5 32.9
12:40 1014 29.94 844 24.92 30.4 86.7 13 -0.7 30.7
12:45 1014 29.94 843 24.89 30.1 86.3 13 -0.9 30.4
12:50 1014 29.94 843 24.89 30.4 86.6 13 -0.5 31.1
12:55 1014 29.94 843 24.89 30.8 87.4 12 -1.2 29.8
13:00 1014 29.94 843 24.89 30.9 87.6 12 -0.9 30.3
13:05 1014 29.94 843 24.89 30.9 87.7 13 0 32.1
13:10 1014 29.94 843 24.89 31.1 87.9 13 -0.2 31.6
13:15 1014 29.94 843 24.89 31.3 88.4 13 0.2 32.4
13:20 1014 29.94 843 24.89 31.3 88.4 13 -0.2 31.6
13:25 1014 29.94 843 24.89 31.2 88.2 12 -0.7 30.8
13:30 1014 29.94 843 24.89 31.3 88.3 12 -1.6 29.1
13:35 1014 29.94 843 24.89 31.1 88 12 -1.7 28.9
13:40 1014 29.94 843 24.89 31 87.7 11 -2.5 27.5
13:45 1013 29.91 843 24.89 31 87.9 12 -1.4 29.4
13:50 1013 29.91 843 24.89 31.6 88.8 11 -1.6 29.1
13:55 1013 29.91 843 24.89 32 89.6 12 -0.8 30.5
14:00 1013 29.91 843 24.89 32 89.5 12 -0.5 31
14:05 1013 29.91 843 24.89 32.1 89.8 12 -0.2 31.6
14:10 1013 29.91 843 24.89 32 89.6 12 -1 30.2
14:15 1013 29.91 843 24.89 32 89.5 12 -0.9 30.4
14:20 1013 29.91 843 24.89 32.5 90.5 11 -1.2 29.9
14:25 1013 29.91 843 24.89 32.2 89.9 11 -1.1 30
14:30 1013 29.91 842 24.86 32.2 89.9 12 -0.6 30.9
14:35 1013 29.91 842 24.86 32.3 90.2 12 -0.7 30.7
14:40 1013 29.91 842 24.86 32.5 90.4 11 -1.6 29
14:45 1013 29.91 842 24.86 32.4 90.3 11 -1.8 28.7
14:50 1013 29.91 842 24.86 32.5 90.4 11 -1.5 29.4
14:55 1013 29.91 842 24.86 32.2 90 11 -1.3 29.6
15:00 1013 29.91 842 24.86 32.4 90.3 11 -1.1 30
15:05 1013 29.91 842 24.86 32.5 90.5 11 -1.1 29.9
15:10 1013 29.91 842 24.86 32.8 91.1 11 -1.2 29.8
15:15 1013 29.91 842 24.86 32.6 90.7 11 -0.9 30.4
15:20 1013 29.91 842 24.86 32.5 90.6 10 -2 28.3
15:25 1013 29.91 842 24.86 32.6 90.6 11 -1.1 30.1
15:30 1013 29.91 842 24.86 32.6 90.7 11 -1.1 30
15:35 1013 29.91 842 24.86 32.3 90.2 11 -1.3 29.7
15:40 1013 29.91 842 24.86 32.2 90 11 -1.5 29.3
15:45 1013 29.91 842 24.86 32.7 90.8 11 -1.6 29.1
15:50 1013 29.91 842 24.86 32.7 90.9 11 -0.6 30.9
15:55 1013 29.91 842 24.86 32.9 91.1 11 -0.9 30.4
16:00 1013 29.91 842 24.86 32.5 90.6 11 -1.5 29.4
16:05 1013 29.91 842 24.86 32.6 90.6 12 -0.6 30.9
16:10 1013 29.91 842 24.86 32.4 90.3 11 -1.1 30.1
16:15 1013 29.91 842 24.86 32.9 91.3 11 -0.6 30.9
16:20 1013 29.91 842 24.86 33 91.4 12 0.3 32.6
16:25 1013 29.91 842 24.86 33.3 91.9 11 -1.3 29.6
16:30 1013 29.91 842 24.86 33.3 91.9 12 -0 32
16:35 1013 29.91 842 24.86 33.2 91.7 11 -0.9 30.4
16:40 1013 29.91 842 24.86 33.5 92.2 11 -0.5 31.1
16:45 1012 29.88 842 24.86 33.6 92.5 11 -0.6 30.9
16:50 1012 29.88 842 24.86 33.5 92.3 11 -0.3 31.5
16:55 1013 29.91 842 24.86 33.5 92.2 11 -0 31.9
17:00 1012 29.88 842 24.86 33.6 92.5 11 -0.1 31.7
17:05 1012 29.88 842 24.86 33.5 92.2 12 0.3 32.5
17:10 1012 29.88 842 24.86 33.4 92 11 -0.1 31.7
17:15 1012 29.88 842 24.86 33.2 91.7 11 -0.3 31.5
17:20 1012 29.88 842 24.86 33.4 92 12 0.1 32.2
17:25 1012 29.88 842 24.86 33.5 92.2 12 0.8 33.4
17:30 1012 29.88 842 24.86 33.6 92.5 12 0.4 32.8
17:35 1012 29.88 842 24.86 33.7 92.6 12 1.1 34
17:40 1012 29.88 842 24.86 33.2 91.7 13 1.2 34.1
17:45 1012 29.88 841 24.83 33.1 91.5 13 1 33.8
17:50 1012 29.88 841 24.83 33.3 91.9 13 1.2 34.1
17:55 1012 29.88 841 24.83 33.5 92.3 13 1.6 34.9
18:00 1012 29.88 841 24.83 33.3 91.9 12 1 33.7
18:05 1012 29.88 841 24.83 33.1 91.7 12 0.4 32.7
18:10 1012 29.88 841 24.83 33.1 91.6 13 1.2 34.2
18:15 1012 29.88 841 24.83 33.2 91.7 12 0.8 33.4
18:20 1012 29.88 841 24.83 33.3 92 12 1 33.8
18:25 1012 29.88 841 24.83 33.3 92 12 1 33.8
18:30 1012 29.88 841 24.83 33.2 91.7 12 0.7 33.3
18:35 1012 29.88 841 24.83 33.5 92.4 13 2 35.5
18:40 1012 29.88 841 24.83 33.7 92.7 13 2.3 36.1
18:45 1012 29.88 841 24.83 33.6 92.5 12 1.2 34.1
18:50 1012 29.88 841 24.83 33.5 92.3 13 1.9 35.3
18:55 1012 29.88 841 24.83 33.7 92.7 12 1.2 34.2
19:00 1012 29.88 842 24.86 33.5 92.4 13 1.9 35.4
19:05 1012 29.88 842 24.86 33.3 92 14 2.6 36.6
19:10 1012 29.88 842 24.86 33.1 91.6 13 1.6 34.8
19:15 1012 29.88 842 24.86 32.9 91.3 15 2.9 37.3
19:20 1012 29.88 842 24.86 32.5 90.6 14 2.3 36.2
19:25 1012 29.88 842 24.86 31.9 89.4 14 1.2 34.1
19:30 1012 29.88 842 24.86 31.6 88.9 15 2.1 35.7
19:35 1012 29.88 842 24.86 31.5 88.6 14 1 33.8
19:40 1013 29.91 842 24.86 31.3 88.4 14 1.2 34.1
19:45 1013 29.91 842 24.86 31.2 88.1 15 2 35.6
19:50 1013 29.91 842 24.86 31.1 88 15 1.9 35.4
19:55 1013 29.91 842 24.86 31.3 88.4 16 2.7 36.8
20:00 1013 29.91 842 24.86 31.5 88.7 16 3.4 38.2
20:05 1013 29.91 842 24.86 31.2 88.1 19 5.2 41.3
20:10 1013 29.91 842 24.86 30.6 87.1 19 4.5 40.2
20:15 1013 29.91 842 24.86 30.1 86.1 19 4.4 39.9
20:20 1013 29.91 842 24.86 29.6 85.2 21 5.3 41.6
20:25 1013 29.91 842 24.86 29.2 84.5 21 4.6 40.4
20:30 1013 29.91 842 24.86 28.8 83.8 20 3.8 38.8
20:35 1013 29.91 842 24.86 28.5 83.2 20 3.3 38
20:40 1013 29.91 842 24.86 28.2 82.8 21 3.9 39.1
20:45 1013 29.91 842 24.86 28 82.3 21 4.2 39.6
20:50 1013 29.91 842 24.86 27.6 81.7 22 4.3 39.7
20:55 1013 29.91 842 24.86 27.3 81.1 23 4.5 40.1
21:00 1013 29.91 843 24.89 27.1 80.8 25 5.5 41.9
21:05 1013 29.91 843 24.89 26.8 80.3 25 5.5 41.9
21:10 1014 29.94 843 24.89 26.5 79.6 25 5.3 41.5
21:15 1014 29.94 843 24.89 26.2 79.1 23 4 39.2
21:20 1014 29.94 843 24.89 26 78.8 25 4.6 40.2
21:25 1014 29.94 843 24.89 25.6 78.1 25 4.6 40.3
21:30 1014 29.94 843 24.89 25.3 77.5 25 4 39.1
21:35 1014 29.94 843 24.89 25.1 77.1 25 4.2 39.6
21:40 1014 29.94 843 24.89 24.2 75.6 32 6.5 43.7
21:45 1014 29.94 844 24.92 23.8 74.9 30 5.3 41.6
21:50 1014 29.94 844 24.92 23.8 74.8 28 4.3 39.8
21:55 1015 29.97 844 24.92 23.7 74.7 31 5.7 42.3
22:00 1015 29.97 844 24.92 23.2 73.8 30 5.1 41.2
22:05 1015 29.97 844 24.92 23.4 74 28 4.3 39.7
22:10 1015 29.97 844 24.92 23.8 74.9 32 6.3 43.4
22:15 1015 29.97 844 24.92 23.1 73.6 29 4.3 39.7
22:20 1015 29.97 844 24.92 23.1 73.7 28 3.9 39
22:25 1015 29.97 844 24.92 22.8 73 31 5.1 41.2
22:30 1015 29.97 844 24.92 22.2 72 31 4.4 39.9
22:35 1015 29.97 844 24.92 22.1 71.7 30 3.9 39
22:40 1015 29.97 845 24.95 21.8 71.2 31 4 39.3
22:45 1015 29.97 845 24.95 21.4 70.6 34 5.1 41.1
22:50 1016 30 845 24.95 20.9 69.5 34 4.7 40.5
22:55 1016 30 845 24.95 20.5 69 37 5.4 41.8
23:00 1016 30 845 24.95 20.6 69.1 33 3.8 38.8
23:05 1016 30 845 24.95 20.7 69.2 34 4.3 39.8
23:10 1016 30 845 24.95 20.5 69 39 6.3 43.4
23:15 1016 30 845 24.95 20.3 68.6 36 4.8 40.7
23:20 1016 30 845 24.95 19.5 67 41 5.9 42.6
23:25 1016 30 845 24.95 18.8 65.8 42 5.7 42.3
23:30 1016 30 845 24.95 18.6 65.6 40 5 40.9
23:35 1016 30 845 24.95 18.8 65.8 40 5 40.9
23:40 1016 30 845 24.95 18.9 66.1 45 6.8 44.2
23:45 1016 30 846 24.98 18.9 66 38 4.3 39.7
23:50 1016 30 846 24.98 18.8 65.9 39 4.6 40.2
23:55 1017 30.03 846 24.98 18.5 65.4 39 4.6 40.3
24:00 1017 30.03 846 24.98 18.4 65 39 4.3 39.7